createdAt,value
2019-02-24T14:58:01.588Z,14.76
2019-02-24T15:00:31.961Z,14.14
2019-02-24T15:03:02.349Z,14.54
2019-02-24T15:05:33.029Z,14.56
2019-02-24T15:08:03.339Z,13.99
2019-02-24T15:10:32.732Z,14.00
2019-02-24T15:13:02.217Z,13.80
2019-02-24T15:15:33.389Z,13.49
2019-02-24T15:18:02.850Z,13.49
2019-02-24T15:20:32.526Z,13.06
2019-02-24T15:23:01.979Z,12.96
2019-02-24T15:25:31.407Z,12.74
2019-02-24T15:28:00.851Z,12.78
2019-02-24T15:30:31.873Z,12.66
2019-02-24T15:33:01.336Z,12.66
2019-02-24T15:35:30.828Z,12.51
2019-02-24T15:38:00.236Z,12.51
2019-02-24T15:40:29.754Z,12.36
2019-02-24T15:42:59.186Z,12.30
2019-02-24T15:45:28.776Z,12.23
2019-02-24T15:47:58.720Z,12.04
2019-02-24T15:50:28.167Z,12.05
2019-02-24T15:52:57.585Z,11.95
2019-02-24T15:55:27.004Z,11.90
2019-02-24T15:57:56.427Z,11.99
2019-02-24T16:00:26.109Z,11.98
2019-02-24T16:03:01.501Z,11.82
2019-02-24T16:05:26.629Z,11.77
2019-02-24T16:07:56.104Z,11.70
2019-02-24T16:10:25.534Z,11.65
2019-02-24T16:12:55.005Z,11.59
2019-02-24T16:15:24.741Z,11.56
2019-02-24T16:17:54.319Z,11.39
2019-02-24T16:20:25.181Z,11.15
2019-02-24T16:22:54.553Z,11.19
2019-02-24T16:25:23.977Z,11.12
2019-02-24T16:27:53.775Z,11.01
2019-02-24T16:30:23.216Z,10.98
2019-02-24T16:32:52.641Z,11.07
2019-02-24T16:35:22.938Z,10.99
2019-02-24T16:37:53.066Z,10.84
2019-02-24T16:40:23.258Z,10.88
2019-02-24T16:42:53.309Z,10.78
2019-02-24T16:45:22.776Z,10.63
2019-02-24T16:47:52.290Z,10.70
2019-02-24T16:50:21.894Z,10.61
2019-02-24T16:52:52.620Z,10.59
2019-02-24T16:55:22.240Z,10.51
2019-02-24T16:57:52.021Z,10.46
2019-02-24T17:00:21.530Z,10.40
2019-02-24T17:02:50.923Z,10.18
2019-02-24T17:05:20.806Z,10.20
2019-02-24T17:07:50.302Z,10.17
2019-02-24T17:10:20.223Z,10.06
2019-02-24T17:12:49.608Z,9.94
2019-02-24T17:15:18.983Z,9.88
2019-02-24T17:17:48.369Z,9.91
2019-02-24T17:20:18.544Z,9.80
2019-02-24T17:22:47.948Z,9.72
2019-02-24T17:25:17.459Z,9.78
2019-02-24T17:27:46.870Z,9.66
2019-02-24T17:30:16.587Z,9.53
2019-02-24T17:32:46.024Z,9.43
2019-02-24T17:35:15.936Z,9.31
2019-02-24T17:37:45.351Z,9.18
2019-02-24T17:40:15.018Z,9.21
2019-02-24T17:42:44.402Z,9.12
2019-02-24T17:45:14.116Z,9.11
2019-02-24T17:47:43.612Z,9.03
2019-02-24T17:50:13.648Z,8.90
2019-02-24T17:52:43.082Z,8.90
2019-02-24T17:55:13.340Z,8.88
2019-02-24T17:57:42.926Z,8.88
2019-02-24T18:00:26.951Z,8.80
2019-02-24T18:02:56.374Z,8.76
2019-02-24T18:05:25.801Z,8.95
2019-02-24T18:07:55.425Z,8.56
2019-02-24T18:10:24.797Z,8.56
2019-02-24T18:12:54.249Z,8.41
2019-02-24T18:15:23.619Z,8.09
2019-02-24T18:17:53.010Z,7.94
2019-02-24T18:20:22.435Z,7.86
2019-02-24T18:22:51.942Z,7.67
2019-02-24T18:25:21.314Z,7.67
2019-02-24T18:27:50.684Z,7.73
2019-02-24T18:30:22.090Z,7.59
2019-02-24T18:32:51.688Z,7.59
2019-02-24T18:35:21.139Z,7.69
2019-02-24T18:37:50.543Z,7.50
2019-02-24T18:40:20.043Z,7.49
2019-02-24T18:42:49.651Z,7.53
2019-02-24T18:45:19.028Z,7.48
2019-02-24T18:47:49.858Z,7.10
2019-02-24T18:50:19.310Z,7.15
2019-02-24T18:52:49.046Z,7.25
2019-02-24T18:55:18.729Z,7.19
2019-02-24T18:57:48.139Z,7.17
2019-02-24T19:00:18.579Z,6.87
2019-02-24T19:02:47.956Z,6.74
2019-02-24T19:05:17.365Z,6.81
2019-02-24T19:07:46.843Z,6.65
2019-02-24T19:10:16.625Z,6.58
2019-02-24T19:12:46.218Z,6.67
2019-02-24T19:15:17.039Z,6.60
2019-02-24T19:17:46.475Z,6.46
2019-02-24T19:20:17.627Z,6.39
2019-02-24T19:22:47.057Z,6.37
2019-02-24T19:25:16.776Z,6.33
2019-02-24T19:27:46.221Z,6.27
2019-02-24T19:30:16.478Z,6.35
2019-02-24T19:32:46.340Z,6.49
2019-02-24T19:35:16.320Z,6.41
2019-02-24T19:37:45.974Z,6.48
2019-02-24T19:40:16.756Z,6.46
2019-02-24T19:42:46.265Z,6.20
2019-02-24T19:45:17.012Z,6.23
2019-02-24T19:47:46.455Z,6.18
2019-02-24T19:50:17.247Z,6.12
2019-02-24T19:52:46.741Z,5.94
2019-02-24T19:55:16.196Z,5.88
2019-02-24T19:57:45.588Z,5.91
2019-02-24T20:00:18.318Z,5.85
2019-02-24T20:02:47.791Z,5.84
2019-02-24T20:05:17.317Z,5.84
2019-02-24T20:07:46.860Z,5.87
2019-02-24T20:10:18.382Z,5.76
2019-02-24T20:12:47.844Z,5.65
2019-02-24T20:15:17.329Z,5.64
2019-02-24T20:17:46.744Z,5.55
2019-02-24T20:20:16.552Z,5.45
2019-02-24T20:22:46.037Z,5.59
2019-02-24T20:25:15.466Z,5.49
2019-02-24T20:27:44.853Z,5.35
2019-02-24T20:30:16.932Z,5.32
2019-02-24T20:32:46.367Z,5.23
2019-02-24T20:35:15.786Z,5.07
2019-02-24T20:37:45.187Z,5.05
2019-02-24T20:40:14.586Z,5.06
2019-02-24T20:42:44.007Z,4.76
2019-02-24T20:45:14.943Z,4.76
2019-02-24T20:47:44.479Z,4.95
2019-02-24T20:50:15.300Z,4.88
2019-02-24T20:52:44.708Z,4.67
2019-02-24T20:55:14.234Z,4.60
2019-02-24T20:57:43.631Z,4.66
2019-02-24T21:00:34.701Z,4.78
2019-02-24T21:03:04.143Z,4.57
2019-02-24T21:05:33.692Z,4.50
2019-02-24T21:08:03.102Z,4.61
2019-02-24T21:10:32.526Z,4.48
2019-02-24T21:13:01.913Z,4.58
2019-02-24T21:15:31.313Z,4.54
2019-02-24T21:18:00.730Z,4.54
2019-02-24T21:20:30.132Z,4.54
2019-02-24T21:22:59.587Z,4.59
2019-02-24T21:25:28.987Z,4.61
2019-02-24T21:27:58.380Z,4.45
2019-02-24T21:30:27.799Z,4.25
2019-02-24T21:32:57.192Z,4.27
2019-02-24T21:35:26.617Z,4.31
2019-02-24T21:37:56.006Z,4.32
2019-02-24T21:40:25.539Z,4.03
2019-02-24T21:42:54.944Z,4.02
2019-02-24T21:45:24.716Z,3.97
2019-02-24T21:47:54.105Z,3.89
2019-02-24T21:50:23.486Z,4.12
2019-02-24T21:52:52.980Z,4.21
2019-02-24T21:55:22.391Z,4.25
2019-02-24T21:57:51.818Z,4.23
2019-02-24T22:00:22.157Z,4.22
2019-02-24T22:02:51.528Z,4.08
2019-02-24T22:05:21.019Z,4.18
2019-02-24T22:07:50.402Z,4.08
2019-02-24T22:10:19.802Z,4.05
2019-02-24T22:12:49.190Z,4.03
2019-02-24T22:15:19.119Z,4.02
2019-02-24T22:17:48.524Z,3.80
2019-02-24T22:20:17.924Z,3.58
2019-02-24T22:22:47.343Z,3.34
2019-02-24T22:25:16.754Z,3.52
2019-02-24T22:27:46.327Z,3.69
2019-02-24T22:30:17.047Z,3.72
2019-02-24T22:32:46.534Z,3.57
2019-02-24T22:35:16.079Z,3.62
2019-02-24T22:37:45.673Z,3.70
2019-02-24T22:40:16.705Z,3.71
2019-02-24T22:42:46.421Z,3.67
2019-02-24T22:45:17.072Z,3.60
2019-02-24T22:47:46.867Z,3.24
2019-02-24T22:50:16.795Z,3.16
2019-02-24T22:52:46.582Z,3.14
2019-02-24T22:55:16.379Z,2.99
2019-02-24T22:57:45.860Z,2.87
2019-02-24T23:00:58.663Z,2.92
2019-02-24T23:03:30.890Z,2.86
2019-02-24T23:06:00.399Z,2.86
2019-02-24T23:08:29.851Z,2.94
2019-02-24T23:10:59.300Z,3.02
2019-02-24T23:13:28.896Z,2.90
2019-02-24T23:15:58.421Z,2.82
2019-02-24T23:18:27.907Z,2.78
2019-02-24T23:20:57.391Z,2.75
2019-02-24T23:23:26.795Z,2.62
2019-02-24T23:25:56.282Z,2.68
2019-02-24T23:28:25.755Z,2.74
2019-02-24T23:30:55.311Z,2.53
2019-02-24T23:33:24.811Z,2.55
2019-02-24T23:35:54.304Z,2.61
2019-02-24T23:38:23.874Z,2.41
2019-02-24T23:40:53.335Z,2.45
2019-02-24T23:43:22.853Z,2.55
2019-02-24T23:45:52.356Z,2.48
2019-02-24T23:48:21.841Z,2.44
2019-02-24T23:50:51.335Z,2.51
2019-02-24T23:53:20.803Z,2.73
2019-02-24T23:55:50.274Z,2.72
2019-02-24T23:58:19.766Z,2.77
